sensor_id;sensor_type;location;lat;lon;timestamp;temperature;humidity
21123;DHT22;10719;48.130;11.630;2024-03-08T00:01:30;0.40;99.90
21123;DHT22;10719;48.130;11.630;2024-03-08T00:03:56;0.50;99.90
21123;DHT22;10719;48.130;11.630;2024-03-08T00:06:22;0.50;99.90
21123;DHT22;10719;48.130;11.630;2024-03-08T00:08:47;0.50;99.90
21123;DHT22;10719;48.130;11.630;2024-03-08T00:11:13;0.50;99.90
21123;DHT22;10719;48.130;11.630;2024-03-08T00:13:38;0.50;99.90
21123;DHT22;10719;48.130;11.630;2024-03-08T00:16:04;0.40;99.90
21123;DHT22;10719;48.130;11.630;2024-03-08T00:18:30;0.40;99.90
21123;DHT22;10719;48.130;11.630;2024-03-08T00:20:55;0.40;99.90
21123;DHT22;10719;48.130;11.630;2024-03-08T00:23:21;0.30;99.90
21123;DHT22;10719;48.130;11.630;2024-03-08T00:25:47;0.30;99.90
21123;DHT22;10719;48.130;11.630;2024-03-08T00:28:12;0.40;99.90
21123;DHT22;10719;48.130;11.630;2024-03-08T00:30:40;0.40;99.90
21123;DHT22;10719;48.130;11.630;2024-03-08T00:33:06;0.40;99.90
21123;DHT22;10719;48.130;11.630;2024-03-08T00:35:31;0.40;99.90
21123;DHT22;10719;48.130;11.630;2024-03-08T00:37:57;0.40;99.90
21123;DHT22;10719;48.130;11.630;2024-03-08T00:40:22;0.30;99.90
21123;DHT22;10719;48.130;11.630;2024-03-08T00:42:48;0.30;99.90
21123;DHT22;10719;48.130;11.630;2024-03-08T00:45:13;0.30;99.90
21123;DHT22;10719;48.130;11.630;2024-03-08T00:47:39;0.30;99.90
21123;DHT22;10719;48.130;11.630;2024-03-08T00:50:05;0.30;99.90
21123;DHT22;10719;48.130;11.630;2024-03-08T00:52:30;0.30;99.90
21123;DHT22;10719;48.130;11.630;2024-03-08T00:54:56;0.30;99.90
21123;DHT22;10719;48.130;11.630;2024-03-08T00:57:22;0.20;99.90
21123;DHT22;10719;48.130;11.630;2024-03-08T00:59:47;0.20;99.90
21123;DHT22;10719;48.130;11.630;2024-03-08T01:02:13;0.20;99.90
21123;DHT22;10719;48.130;11.630;2024-03-08T01:04:39;0.20;99.90
21123;DHT22;10719;48.130;11.630;2024-03-08T01:07:04;0.10;99.90
21123;DHT22;10719;48.130;11.630;2024-03-08T01:09:31;0.10;99.90
21123;DHT22;10719;48.130;11.630;2024-03-08T01:11:57;0.20;99.90
21123;DHT22;10719;48.130;11.630;2024-03-08T01:14:25;0.20;99.90
21123;DHT22;10719;48.130;11.630;2024-03-08T01:16:51;0.20;99.90
21123;DHT22;10719;48.130;11.630;2024-03-08T01:19:17;0.20;99.90
21123;DHT22;10719;48.130;11.630;2024-03-08T01:21:43;0.30;99.90
21123;DHT22;10719;48.130;11.630;2024-03-08T01:24:08;0.30;99.90
21123;DHT22;10719;48.130;11.630;2024-03-08T01:26:34;0.20;99.90
21123;DHT22;10719;48.130;11.630;2024-03-08T01:29:00;0.20;99.90
21123;DHT22;10719;48.130;11.630;2024-03-08T01:31:28;0.20;99.90
21123;DHT22;10719;48.130;11.630;2024-03-08T01:33:55;0.10;99.90
21123;DHT22;10719;48.130;11.630;2024-03-08T01:36:21;0.10;99.90
21123;DHT22;10719;48.130;11.630;2024-03-08T01:38:47;0.10;99.90
21123;DHT22;10719;48.130;11.630;2024-03-08T01:41:12;0.10;99.90
21123;DHT22;10719;48.130;11.630;2024-03-08T01:43:38;0.10;99.90
21123;DHT22;10719;48.130;11.630;2024-03-08T01:46:05;0.00;99.90
21123;DHT22;10719;48.130;11.630;2024-03-08T01:48:31;0.00;99.90
21123;DHT22;10719;48.130;11.630;2024-03-08T01:50:57;0.00;99.90
21123;DHT22;10719;48.130;11.630;2024-03-08T01:53:24;-0.10;99.90
21123;DHT22;10719;48.130;11.630;2024-03-08T01:55:55;-0.10;99.90
21123;DHT22;10719;48.130;11.630;2024-03-08T01:58:22;0.00;99.90
21123;DHT22;10719;48.130;11.630;2024-03-08T02:00:49;0.00;99.90
21123;DHT22;10719;48.130;11.630;2024-03-08T02:03:15;0.00;99.90
21123;DHT22;10719;48.130;11.630;2024-03-08T02:05:41;0.00;99.90
21123;DHT22;10719;48.130;11.630;2024-03-08T02:08:08;-0.10;99.90
21123;DHT22;10719;48.130;11.630;2024-03-08T02:10:38;-0.10;99.90
21123;DHT22;10719;48.130;11.630;2024-03-08T02:13:04;-0.10;99.90
21123;DHT22;10719;48.130;11.630;2024-03-08T02:18:17;-0.10;99.90
21123;DHT22;10719;48.130;11.630;2024-03-08T02:20:43;-0.10;99.90
21123;DHT22;10719;48.130;11.630;2024-03-08T02:23:09;-0.20;99.90
21123;DHT22;10719;48.130;11.630;2024-03-08T02:25:35;-0.20;99.90
21123;DHT22;10719;48.130;11.630;2024-03-08T02:28:01;-0.20;99.90
21123;DHT22;10719;48.130;11.630;2024-03-08T02:30:26;-0.20;99.90
21123;DHT22;10719;48.130;11.630;2024-03-08T02:32:55;-0.20;99.90
21123;DHT22;10719;48.130;11.630;2024-03-08T02:35:21;-0.20;99.90
21123;DHT22;10719;48.130;11.630;2024-03-08T02:37:46;-0.30;99.90
21123;DHT22;10719;48.130;11.630;2024-03-08T02:40:13;-0.20;99.90
21123;DHT22;10719;48.130;11.630;2024-03-08T02:42:39;-0.30;99.90
21123;DHT22;10719;48.130;11.630;2024-03-08T02:45:05;-0.30;99.90
21123;DHT22;10719;48.130;11.630;2024-03-08T02:47:32;-0.30;99.90
21123;DHT22;10719;48.130;11.630;2024-03-08T02:49:57;-0.20;99.90
21123;DHT22;10719;48.130;11.630;2024-03-08T02:52:23;-0.30;99.90
21123;DHT22;10719;48.130;11.630;2024-03-08T02:54:48;-0.30;99.90
21123;DHT22;10719;48.130;11.630;2024-03-08T02:57:15;-0.30;99.90
21123;DHT22;10719;48.130;11.630;2024-03-08T02:59:42;-0.30;99.90
21123;DHT22;10719;48.130;11.630;2024-03-08T03:02:07;-0.30;99.90
21123;DHT22;10719;48.130;11.630;2024-03-08T03:04:36;-0.30;99.90
21123;DHT22;10719;48.130;11.630;2024-03-08T03:07:01;-0.40;99.90
21123;DHT22;10719;48.130;11.630;2024-03-08T03:09:27;-0.50;99.90
21123;DHT22;10719;48.130;11.630;2024-03-08T03:11:53;-0.50;99.90
21123;DHT22;10719;48.130;11.630;2024-03-08T03:14:21;-0.50;99.90
21123;DHT22;10719;48.130;11.630;2024-03-08T03:16:46;-0.50;99.90
21123;DHT22;10719;48.130;11.630;2024-03-08T03:19:12;-0.40;99.90
21123;DHT22;10719;48.130;11.630;2024-03-08T03:21:37;-0.50;99.90
21123;DHT22;10719;48.130;11.630;2024-03-08T03:24:04;-0.60;99.90
21123;DHT22;10719;48.130;11.630;2024-03-08T03:26:36;-0.50;99.90
21123;DHT22;10719;48.130;11.630;2024-03-08T03:29:05;-0.60;99.90
21123;DHT22;10719;48.130;11.630;2024-03-08T03:31:31;-0.50;99.90
21123;DHT22;10719;48.130;11.630;2024-03-08T03:33:57;-0.50;99.90
21123;DHT22;10719;48.130;11.630;2024-03-08T03:36:28;-0.50;99.90
21123;DHT22;10719;48.130;11.630;2024-03-08T03:38:55;-0.60;99.90
21123;DHT22;10719;48.130;11.630;2024-03-08T03:41:36;-0.60;99.90
21123;DHT22;10719;48.130;11.630;2024-03-08T03:44:02;-0.60;99.90
21123;DHT22;10719;48.130;11.630;2024-03-08T03:46:28;-0.60;99.90
21123;DHT22;10719;48.130;11.630;2024-03-08T03:48:54;-0.60;99.90
21123;DHT22;10719;48.130;11.630;2024-03-08T03:51:21;-0.60;99.90
21123;DHT22;10719;48.130;11.630;2024-03-08T03:53:47;-0.60;99.90
21123;DHT22;10719;48.130;11.630;2024-03-08T03:56:12;-0.70;99.90
21123;DHT22;10719;48.130;11.630;2024-03-08T03:58:38;-0.60;99.90
21123;DHT22;10719;48.130;11.630;2024-03-08T04:01:05;-0.70;99.90
21123;DHT22;10719;48.130;11.630;2024-03-08T04:03:31;-0.70;99.90
21123;DHT22;10719;48.130;11.630;2024-03-08T04:05:56;-0.60;99.90
21123;DHT22;10719;48.130;11.630;2024-03-08T04:08:22;-0.70;99.90
21123;DHT22;10719;48.130;11.630;2024-03-08T04:10:49;-0.70;99.90
21123;DHT22;10719;48.130;11.630;2024-03-08T04:13:15;-0.80;99.90
21123;DHT22;10719;48.130;11.630;2024-03-08T04:15:41;-0.70;99.90
21123;DHT22;10719;48.130;11.630;2024-03-08T04:18:09;-0.80;99.90
21123;DHT22;10719;48.130;11.630;2024-03-08T04:20:35;-0.80;99.90
21123;DHT22;10719;48.130;11.630;2024-03-08T04:23:01;-0.70;99.90
21123;DHT22;10719;48.130;11.630;2024-03-08T04:25:27;-0.70;99.90
21123;DHT22;10719;48.130;11.630;2024-03-08T04:27:53;-0.70;99.90
21123;DHT22;10719;48.130;11.630;2024-03-08T04:30:18;-0.70;99.90
21123;DHT22;10719;48.130;11.630;2024-03-08T04:32:44;-0.70;99.90
21123;DHT22;10719;48.130;11.630;2024-03-08T04:35:09;-0.60;99.90
21123;DHT22;10719;48.130;11.630;2024-03-08T04:37:35;-0.70;99.90
21123;DHT22;10719;48.130;11.630;2024-03-08T04:40:00;-0.70;99.90
21123;DHT22;10719;48.130;11.630;2024-03-08T04:42:29;-0.70;99.90
21123;DHT22;10719;48.130;11.630;2024-03-08T04:44:55;-0.80;99.90
21123;DHT22;10719;48.130;11.630;2024-03-08T04:47:21;-0.80;99.90
21123;DHT22;10719;48.130;11.630;2024-03-08T04:49:47;-0.80;99.90
21123;DHT22;10719;48.130;11.630;2024-03-08T04:52:12;-0.80;99.90
21123;DHT22;10719;48.130;11.630;2024-03-08T04:54:38;-0.80;99.90
21123;DHT22;10719;48.130;11.630;2024-03-08T04:57:03;-0.80;99.90
21123;DHT22;10719;48.130;11.630;2024-03-08T04:59:30;-0.80;99.90
21123;DHT22;10719;48.130;11.630;2024-03-08T05:01:55;-0.70;99.90
21123;DHT22;10719;48.130;11.630;2024-03-08T05:04:21;-0.70;99.90
21123;DHT22;10719;48.130;11.630;2024-03-08T05:06:47;-0.70;99.90
21123;DHT22;10719;48.130;11.630;2024-03-08T05:09:14;-0.70;99.90
21123;DHT22;10719;48.130;11.630;2024-03-08T05:11:41;-0.70;99.90
21123;DHT22;10719;48.130;11.630;2024-03-08T05:14:08;-0.60;99.90
21123;DHT22;10719;48.130;11.630;2024-03-08T05:16:33;-0.60;99.90
21123;DHT22;10719;48.130;11.630;2024-03-08T05:18:59;-0.60;99.90
21123;DHT22;10719;48.130;11.630;2024-03-08T05:21:25;-0.60;99.90
21123;DHT22;10719;48.130;11.630;2024-03-08T05:23:51;-0.50;99.90
21123;DHT22;10719;48.130;11.630;2024-03-08T05:26:17;-0.50;99.90
21123;DHT22;10719;48.130;11.630;2024-03-08T05:28:42;-0.50;99.90
21123;DHT22;10719;48.130;11.630;2024-03-08T05:31:08;-0.50;99.90
21123;DHT22;10719;48.130;11.630;2024-03-08T05:33:34;-0.50;99.90
21123;DHT22;10719;48.130;11.630;2024-03-08T05:36:00;-0.50;99.90
21123;DHT22;10719;48.130;11.630;2024-03-08T05:38:29;-0.50;99.90
21123;DHT22;10719;48.130;11.630;2024-03-08T05:40:55;-0.40;99.90
21123;DHT22;10719;48.130;11.630;2024-03-08T05:43:20;-0.40;99.90
21123;DHT22;10719;48.130;11.630;2024-03-08T05:45:46;-0.40;99.90
21123;DHT22;10719;48.130;11.630;2024-03-08T05:48:13;-0.40;99.90
21123;DHT22;10719;48.130;11.630;2024-03-08T05:50:39;-0.40;99.90
21123;DHT22;10719;48.130;11.630;2024-03-08T05:53:04;-0.40;99.90
21123;DHT22;10719;48.130;11.630;2024-03-08T05:55:33;-0.40;99.90
21123;DHT22;10719;48.130;11.630;2024-03-08T05:58:01;-0.30;99.90
21123;DHT22;10719;48.130;11.630;2024-03-08T06:00:27;-0.20;99.90
21123;DHT22;10719;48.130;11.630;2024-03-08T06:02:52;-0.10;99.90
21123;DHT22;10719;48.130;11.630;2024-03-08T06:05:18;-0.10;99.90
21123;DHT22;10719;48.130;11.630;2024-03-08T06:07:44;-0.10;99.90
21123;DHT22;10719;48.130;11.630;2024-03-08T06:10:11;0.00;99.90
21123;DHT22;10719;48.130;11.630;2024-03-08T06:12:38;0.00;99.90
21123;DHT22;10719;48.130;11.630;2024-03-08T06:15:07;0.00;99.90
21123;DHT22;10719;48.130;11.630;2024-03-08T06:17:34;0.00;99.90
21123;DHT22;10719;48.130;11.630;2024-03-08T06:20:00;0.10;99.90
21123;DHT22;10719;48.130;11.630;2024-03-08T06:22:26;0.00;99.90
21123;DHT22;10719;48.130;11.630;2024-03-08T06:24:51;0.00;99.90
21123;DHT22;10719;48.130;11.630;2024-03-08T06:27:19;0.10;99.90
21123;DHT22;10719;48.130;11.630;2024-03-08T06:29:45;0.10;99.90
21123;DHT22;10719;48.130;11.630;2024-03-08T06:32:10;0.20;99.90
21123;DHT22;10719;48.130;11.630;2024-03-08T06:34:36;0.20;99.90
21123;DHT22;10719;48.130;11.630;2024-03-08T06:37:02;0.30;99.90
21123;DHT22;10719;48.130;11.630;2024-03-08T06:39:27;0.30;99.90
21123;DHT22;10719;48.130;11.630;2024-03-08T06:41:57;0.40;99.90
21123;DHT22;10719;48.130;11.630;2024-03-08T06:44:22;0.60;99.90
21123;DHT22;10719;48.130;11.630;2024-03-08T06:46:48;0.50;99.90
21123;DHT22;10719;48.130;11.630;2024-03-08T06:49:14;0.60;99.90
21123;DHT22;10719;48.130;11.630;2024-03-08T06:51:41;0.60;99.90
21123;DHT22;10719;48.130;11.630;2024-03-08T06:54:07;0.60;99.90
21123;DHT22;10719;48.130;11.630;2024-03-08T06:56:37;0.70;99.90
21123;DHT22;10719;48.130;11.630;2024-03-08T06:59:03;0.60;99.90
21123;DHT22;10719;48.130;11.630;2024-03-08T07:01:29;0.60;99.90
21123;DHT22;10719;48.130;11.630;2024-03-08T07:04:00;0.60;99.90
21123;DHT22;10719;48.130;11.630;2024-03-08T07:06:27;0.60;99.90
21123;DHT22;10719;48.130;11.630;2024-03-08T07:08:54;0.60;99.90
21123;DHT22;10719;48.130;11.630;2024-03-08T07:11:19;0.70;99.90
21123;DHT22;10719;48.130;11.630;2024-03-08T07:13:45;0.80;99.90
21123;DHT22;10719;48.130;11.630;2024-03-08T07:16:11;0.90;99.90
21123;DHT22;10719;48.130;11.630;2024-03-08T07:18:37;0.90;99.90
21123;DHT22;10719;48.130;11.630;2024-03-08T07:21:05;0.90;99.90
21123;DHT22;10719;48.130;11.630;2024-03-08T07:23:31;0.90;99.90
21123;DHT22;10719;48.130;11.630;2024-03-08T07:26:15;1.00;99.90
21123;DHT22;10719;48.130;11.630;2024-03-08T07:28:41;1.00;99.90
21123;DHT22;10719;48.130;11.630;2024-03-08T07:31:06;1.10;99.90
21123;DHT22;10719;48.130;11.630;2024-03-08T07:33:56;1.10;99.90
21123;DHT22;10719;48.130;11.630;2024-03-08T07:36:24;1.00;99.90
21123;DHT22;10719;48.130;11.630;2024-03-08T07:38:49;1.20;99.90
21123;DHT22;10719;48.130;11.630;2024-03-08T07:41:15;1.30;99.90
21123;DHT22;10719;48.130;11.630;2024-03-08T07:43:42;1.40;99.90
21123;DHT22;10719;48.130;11.630;2024-03-08T07:46:09;1.40;99.90
21123;DHT22;10719;48.130;11.630;2024-03-08T07:48:36;1.50;99.90
21123;DHT22;10719;48.130;11.630;2024-03-08T07:51:02;1.60;99.90
21123;DHT22;10719;48.130;11.630;2024-03-08T07:53:28;1.70;99.90
21123;DHT22;10719;48.130;11.630;2024-03-08T07:55:54;1.70;99.90
21123;DHT22;10719;48.130;11.630;2024-03-08T07:58:19;1.80;99.90
21123;DHT22;10719;48.130;11.630;2024-03-08T08:00:45;1.80;99.90
21123;DHT22;10719;48.130;11.630;2024-03-08T08:03:11;1.90;99.90
21123;DHT22;10719;48.130;11.630;2024-03-08T08:05:38;1.90;99.90
21123;DHT22;10719;48.130;11.630;2024-03-08T08:08:05;1.90;99.90
21123;DHT22;10719;48.130;11.630;2024-03-08T08:10:32;1.90;99.90
21123;DHT22;10719;48.130;11.630;2024-03-08T08:12:58;1.90;99.90
21123;DHT22;10719;48.130;11.630;2024-03-08T08:15:23;2.00;99.90
21123;DHT22;10719;48.130;11.630;2024-03-08T08:17:49;2.00;99.90
21123;DHT22;10719;48.130;11.630;2024-03-08T08:20:15;2.00;99.90
21123;DHT22;10719;48.130;11.630;2024-03-08T08:22:41;2.00;99.90
21123;DHT22;10719;48.130;11.630;2024-03-08T08:25:07;2.10;99.90
21123;DHT22;10719;48.130;11.630;2024-03-08T08:27:33;2.20;99.90
21123;DHT22;10719;48.130;11.630;2024-03-08T08:29:59;2.30;99.90
21123;DHT22;10719;48.130;11.630;2024-03-08T08:32:25;2.30;99.90
21123;DHT22;10719;48.130;11.630;2024-03-08T08:34:51;2.50;99.90
21123;DHT22;10719;48.130;11.630;2024-03-08T08:37:17;2.60;99.90
21123;DHT22;10719;48.130;11.630;2024-03-08T08:39:43;2.70;99.90
21123;DHT22;10719;48.130;11.630;2024-03-08T08:42:08;2.70;99.90
21123;DHT22;10719;48.130;11.630;2024-03-08T08:44:35;2.80;99.90
21123;DHT22;10719;48.130;11.630;2024-03-08T08:47:01;2.80;99.90
21123;DHT22;10719;48.130;11.630;2024-03-08T08:49:28;2.80;99.90
21123;DHT22;10719;48.130;11.630;2024-03-08T08:51:56;2.90;99.90
21123;DHT22;10719;48.130;11.630;2024-03-08T08:54:23;2.90;99.90
21123;DHT22;10719;48.130;11.630;2024-03-08T08:56:50;2.90;99.90
21123;DHT22;10719;48.130;11.630;2024-03-08T08:59:16;2.80;99.90
21123;DHT22;10719;48.130;11.630;2024-03-08T09:01:47;3.00;99.90
21123;DHT22;10719;48.130;11.630;2024-03-08T09:04:13;3.00;99.90
21123;DHT22;10719;48.130;11.630;2024-03-08T09:06:39;3.10;99.90
21123;DHT22;10719;48.130;11.630;2024-03-08T09:09:07;3.20;99.90
21123;DHT22;10719;48.130;11.630;2024-03-08T09:11:34;3.30;99.90
21123;DHT22;10719;48.130;11.630;2024-03-08T09:14:00;3.40;99.90
21123;DHT22;10719;48.130;11.630;2024-03-08T09:16:27;3.50;99.90
21123;DHT22;10719;48.130;11.630;2024-03-08T09:18:53;3.60;99.90
21123;DHT22;10719;48.130;11.630;2024-03-08T09:21:18;3.70;99.90
21123;DHT22;10719;48.130;11.630;2024-03-08T09:23:44;3.80;99.90
21123;DHT22;10719;48.130;11.630;2024-03-08T09:26:10;3.90;99.90
21123;DHT22;10719;48.130;11.630;2024-03-08T09:28:38;3.90;99.90
21123;DHT22;10719;48.130;11.630;2024-03-08T09:31:04;4.00;99.90
21123;DHT22;10719;48.130;11.630;2024-03-08T09:33:30;4.10;99.90
21123;DHT22;10719;48.130;11.630;2024-03-08T09:35:56;4.30;99.90
21123;DHT22;10719;48.130;11.630;2024-03-08T09:38:24;4.50;99.90
21123;DHT22;10719;48.130;11.630;2024-03-08T09:40:51;4.60;99.90
21123;DHT22;10719;48.130;11.630;2024-03-08T09:43:18;4.90;99.90
21123;DHT22;10719;48.130;11.630;2024-03-08T09:45:45;6.00;99.90
21123;DHT22;10719;48.130;11.630;2024-03-08T09:48:15;7.60;99.90
21123;DHT22;10719;48.130;11.630;2024-03-08T09:50:42;8.80;99.90
21123;DHT22;10719;48.130;11.630;2024-03-08T09:53:08;9.90;99.90
21123;DHT22;10719;48.130;11.630;2024-03-08T09:55:38;10.00;99.90
21123;DHT22;10719;48.130;11.630;2024-03-08T09:58:08;10.50;99.90
21123;DHT22;10719;48.130;11.630;2024-03-08T10:00:54;10.90;99.90
21123;DHT22;10719;48.130;11.630;2024-03-08T10:03:23;11.30;99.90
21123;DHT22;10719;48.130;11.630;2024-03-08T10:05:48;12.70;99.90
21123;DHT22;10719;48.130;11.630;2024-03-08T10:08:14;12.50;99.90
21123;DHT22;10719;48.130;11.630;2024-03-08T10:10:40;12.40;99.90
21123;DHT22;10719;48.130;11.630;2024-03-08T10:13:06;12.70;99.90
21123;DHT22;10719;48.130;11.630;2024-03-08T10:15:32;12.70;99.90
21123;DHT22;10719;48.130;11.630;2024-03-08T10:18:01;12.30;99.90
21123;DHT22;10719;48.130;11.630;2024-03-08T10:20:31;13.40;99.90
21123;DHT22;10719;48.130;11.630;2024-03-08T10:23:03;12.60;99.90
21123;DHT22;10719;48.130;11.630;2024-03-08T10:25:31;13.80;99.90
21123;DHT22;10719;48.130;11.630;2024-03-08T10:27:56;13.50;99.90
21123;DHT22;10719;48.130;11.630;2024-03-08T10:30:22;14.30;99.90
21123;DHT22;10719;48.130;11.630;2024-03-08T10:32:48;14.70;99.90
21123;DHT22;10719;48.130;11.630;2024-03-08T10:35:15;14.10;99.90
21123;DHT22;10719;48.130;11.630;2024-03-08T10:40:19;13.00;99.90
21123;DHT22;10719;48.130;11.630;2024-03-08T10:42:58;13.80;99.90
21123;DHT22;10719;48.130;11.630;2024-03-08T10:50:42;14.30;99.90
21123;DHT22;10719;48.130;11.630;2024-03-08T10:53:11;14.40;99.90
21123;DHT22;10719;48.130;11.630;2024-03-08T10:55:40;14.50;99.90
21123;DHT22;10719;48.130;11.630;2024-03-08T10:58:06;13.60;99.90
21123;DHT22;10719;48.130;11.630;2024-03-08T11:00:34;13.80;99.90
21123;DHT22;10719;48.130;11.630;2024-03-08T11:03:00;14.50;99.90
21123;DHT22;10719;48.130;11.630;2024-03-08T11:05:39;15.00;99.90
21123;DHT22;10719;48.130;11.630;2024-03-08T11:08:20;15.30;99.90
21123;DHT22;10719;48.130;11.630;2024-03-08T11:10:52;15.20;99.90
21123;DHT22;10719;48.130;11.630;2024-03-08T11:13:33;14.30;99.90
21123;DHT22;10719;48.130;11.630;2024-03-08T11:16:06;14.60;99.90
21123;DHT22;10719;48.130;11.630;2024-03-08T11:18:33;14.70;99.90
21123;DHT22;10719;48.130;11.630;2024-03-08T11:21:03;13.60;99.90
21123;DHT22;10719;48.130;11.630;2024-03-08T11:23:32;13.70;99.90
21123;DHT22;10719;48.130;11.630;2024-03-08T11:25:59;14.20;99.90
21123;DHT22;10719;48.130;11.630;2024-03-08T11:28:25;15.00;99.90
21123;DHT22;10719;48.130;11.630;2024-03-08T11:33:28;14.20;99.90
21123;DHT22;10719;48.130;11.630;2024-03-08T11:36:12;14.30;99.90
21123;DHT22;10719;48.130;11.630;2024-03-08T11:38:42;15.00;99.90
21123;DHT22;10719;48.130;11.630;2024-03-08T11:41:09;13.50;99.90
21123;DHT22;10719;48.130;11.630;2024-03-08T11:43:39;13.80;99.90
21123;DHT22;10719;48.130;11.630;2024-03-08T11:46:10;14.80;99.90
21123;DHT22;10719;48.130;11.630;2024-03-08T11:48:39;15.40;99.90
21123;DHT22;10719;48.130;11.630;2024-03-08T11:51:05;16.60;99.90
21123;DHT22;10719;48.130;11.630;2024-03-08T11:53:31;16.30;99.90
21123;DHT22;10719;48.130;11.630;2024-03-08T11:56:07;16.00;99.90
21123;DHT22;10719;48.130;11.630;2024-03-08T11:58:33;15.40;99.90
21123;DHT22;10719;48.130;11.630;2024-03-08T12:01:05;14.90;99.90
21123;DHT22;10719;48.130;11.630;2024-03-08T12:03:31;16.00;99.90
21123;DHT22;10719;48.130;11.630;2024-03-08T12:06:00;16.20;99.90
21123;DHT22;10719;48.130;11.630;2024-03-08T12:08:25;15.40;99.90
21123;DHT22;10719;48.130;11.630;2024-03-08T12:10:54;16.20;99.90
21123;DHT22;10719;48.130;11.630;2024-03-08T12:13:25;16.20;99.90
21123;DHT22;10719;48.130;11.630;2024-03-08T12:15:57;15.20;99.90
21123;DHT22;10719;48.130;11.630;2024-03-08T12:18:26;15.00;99.90
21123;DHT22;10719;48.130;11.630;2024-03-08T12:21:07;15.70;99.90
21123;DHT22;10719;48.130;11.630;2024-03-08T12:23:37;15.40;99.90
21123;DHT22;10719;48.130;11.630;2024-03-08T12:26:24;16.10;99.90
21123;DHT22;10719;48.130;11.630;2024-03-08T12:28:51;16.30;99.90
21123;DHT22;10719;48.130;11.630;2024-03-08T12:31:17;16.70;99.90
21123;DHT22;10719;48.130;11.630;2024-03-08T12:33:53;17.30;99.90
21123;DHT22;10719;48.130;11.630;2024-03-08T12:36:19;16.10;99.90
21123;DHT22;10719;48.130;11.630;2024-03-08T12:38:46;16.50;99.90
21123;DHT22;10719;48.130;11.630;2024-03-08T12:41:18;16.30;99.90
21123;DHT22;10719;48.130;11.630;2024-03-08T12:43:45;16.00;99.90
21123;DHT22;10719;48.130;11.630;2024-03-08T12:46:17;16.10;99.90
21123;DHT22;10719;48.130;11.630;2024-03-08T12:48:45;17.10;99.90
21123;DHT22;10719;48.130;11.630;2024-03-08T12:51:21;16.10;99.90
21123;DHT22;10719;48.130;11.630;2024-03-08T12:53:47;17.00;99.90
21123;DHT22;10719;48.130;11.630;2024-03-08T12:56:32;18.10;99.90
21123;DHT22;10719;48.130;11.630;2024-03-08T12:58:59;17.50;99.90
21123;DHT22;10719;48.130;11.630;2024-03-08T13:01:25;17.20;99.90
21123;DHT22;10719;48.130;11.630;2024-03-08T13:03:54;19.00;99.90
21123;DHT22;10719;48.130;11.630;2024-03-08T13:06:24;18.00;99.90
21123;DHT22;10719;48.130;11.630;2024-03-08T13:08:53;17.40;99.90
21123;DHT22;10719;48.130;11.630;2024-03-08T13:11:19;17.10;99.90
21123;DHT22;10719;48.130;11.630;2024-03-08T13:13:45;16.50;99.90
21123;DHT22;10719;48.130;11.630;2024-03-08T13:16:12;17.20;99.90
21123;DHT22;10719;48.130;11.630;2024-03-08T13:18:40;15.90;99.90
21123;DHT22;10719;48.130;11.630;2024-03-08T13:21:07;16.40;99.90
21123;DHT22;10719;48.130;11.630;2024-03-08T13:23:35;17.40;99.90
21123;DHT22;10719;48.130;11.630;2024-03-08T13:26:06;18.30;99.90
21123;DHT22;10719;48.130;11.630;2024-03-08T13:28:32;17.50;99.90
21123;DHT22;10719;48.130;11.630;2024-03-08T13:31:05;18.40;99.90
21123;DHT22;10719;48.130;11.630;2024-03-08T13:33:36;18.30;99.90
21123;DHT22;10719;48.130;11.630;2024-03-08T13:36:11;18.40;99.90
21123;DHT22;10719;48.130;11.630;2024-03-08T13:38:45;18.70;99.90
21123;DHT22;10719;48.130;11.630;2024-03-08T13:41:11;19.10;99.90
21123;DHT22;10719;48.130;11.630;2024-03-08T13:43:37;18.80;99.90
21123;DHT22;10719;48.130;11.630;2024-03-08T13:46:04;18.90;99.90
21123;DHT22;10719;48.130;11.630;2024-03-08T13:48:30;18.80;99.90
21123;DHT22;10719;48.130;11.630;2024-03-08T13:50:56;17.60;99.90
21123;DHT22;10719;48.130;11.630;2024-03-08T13:53:22;17.50;99.90
21123;DHT22;10719;48.130;11.630;2024-03-08T13:55:49;16.40;99.90
21123;DHT22;10719;48.130;11.630;2024-03-08T13:58:15;16.90;99.90
21123;DHT22;10719;48.130;11.630;2024-03-08T14:00:41;16.10;99.90
21123;DHT22;10719;48.130;11.630;2024-03-08T14:03:10;16.80;99.90
21123;DHT22;10719;48.130;11.630;2024-03-08T14:05:41;16.40;99.90
21123;DHT22;10719;48.130;11.630;2024-03-08T14:08:08;17.00;99.90
21123;DHT22;10719;48.130;11.630;2024-03-08T14:10:34;17.70;99.90
21123;DHT22;10719;48.130;11.630;2024-03-08T14:13:02;17.50;99.90
21123;DHT22;10719;48.130;11.630;2024-03-08T14:15:31;17.70;99.90
21123;DHT22;10719;48.130;11.630;2024-03-08T14:17:56;18.10;99.90
21123;DHT22;10719;48.130;11.630;2024-03-08T14:20:23;17.50;99.90
21123;DHT22;10719;48.130;11.630;2024-03-08T14:22:55;16.90;99.90
21123;DHT22;10719;48.130;11.630;2024-03-08T14:25:22;16.50;99.90
21123;DHT22;10719;48.130;11.630;2024-03-08T14:27:49;16.40;99.90
21123;DHT22;10719;48.130;11.630;2024-03-08T14:30:15;16.50;99.90
21123;DHT22;10719;48.130;11.630;2024-03-08T14:32:58;16.50;99.90
21123;DHT22;10719;48.130;11.630;2024-03-08T14:35:25;15.70;99.90
21123;DHT22;10719;48.130;11.630;2024-03-08T14:37:51;15.40;99.90
21123;DHT22;10719;48.130;11.630;2024-03-08T14:40:17;15.20;99.90
21123;DHT22;10719;48.130;11.630;2024-03-08T14:42:48;14.60;99.90
21123;DHT22;10719;48.130;11.630;2024-03-08T14:45:15;13.70;99.90
21123;DHT22;10719;48.130;11.630;2024-03-08T14:47:41;13.30;99.90
21123;DHT22;10719;48.130;11.630;2024-03-08T14:50:08;12.70;99.90
21123;DHT22;10719;48.130;11.630;2024-03-08T14:52:35;12.80;99.90
21123;DHT22;10719;48.130;11.630;2024-03-08T14:55:01;12.70;99.90
21123;DHT22;10719;48.130;11.630;2024-03-08T14:57:28;12.30;99.90
21123;DHT22;10719;48.130;11.630;2024-03-08T14:59:54;12.10;99.90
21123;DHT22;10719;48.130;11.630;2024-03-08T15:02:19;12.10;99.90
21123;DHT22;10719;48.130;11.630;2024-03-08T15:04:47;11.60;99.90
21123;DHT22;10719;48.130;11.630;2024-03-08T15:07:22;11.20;99.90
21123;DHT22;10719;48.130;11.630;2024-03-08T15:09:48;11.00;99.90
21123;DHT22;10719;48.130;11.630;2024-03-08T15:12:13;11.10;99.90
21123;DHT22;10719;48.130;11.630;2024-03-08T15:14:41;11.40;99.90
21123;DHT22;10719;48.130;11.630;2024-03-08T15:17:09;11.40;99.90
21123;DHT22;10719;48.130;11.630;2024-03-08T15:19:42;11.80;99.90
21123;DHT22;10719;48.130;11.630;2024-03-08T15:22:08;11.80;99.90
21123;DHT22;10719;48.130;11.630;2024-03-08T15:24:35;11.50;99.90
21123;DHT22;10719;48.130;11.630;2024-03-08T15:27:00;11.40;99.90
21123;DHT22;10719;48.130;11.630;2024-03-08T15:29:27;10.70;99.90
21123;DHT22;10719;48.130;11.630;2024-03-08T15:31:53;10.70;99.90
21123;DHT22;10719;48.130;11.630;2024-03-08T15:34:20;11.00;99.90
21123;DHT22;10719;48.130;11.630;2024-03-08T15:36:49;11.10;99.90